sensor_id;sensor_type;location;lat;lon;timestamp;temperature;humidity
19090;DHT22;9677;50.656;13.064;2022-10-31T00:01:38;15.00;56.00
19090;DHT22;9677;50.656;13.064;2022-10-31T00:04:07;15.00;56.00
19090;DHT22;9677;50.656;13.064;2022-10-31T00:06:36;15.00;56.00
19090;DHT22;9677;50.656;13.064;2022-10-31T00:09:06;15.00;56.10
19090;DHT22;9677;50.656;13.064;2022-10-31T00:11:34;14.90;56.00
19090;DHT22;9677;50.656;13.064;2022-10-31T00:14:03;14.90;56.00
19090;DHT22;9677;50.656;13.064;2022-10-31T00:16:32;14.90;56.10
19090;DHT22;9677;50.656;13.064;2022-10-31T00:19:04;14.90;56.00
19090;DHT22;9677;50.656;13.064;2022-10-31T00:21:34;14.90;56.10
19090;DHT22;9677;50.656;13.064;2022-10-31T00:24:04;14.80;56.20
19090;DHT22;9677;50.656;13.064;2022-10-31T00:26:34;14.80;56.20
19090;DHT22;9677;50.656;13.064;2022-10-31T00:29:03;14.80;56.20
19090;DHT22;9677;50.656;13.064;2022-10-31T00:31:31;14.80;56.20
19090;DHT22;9677;50.656;13.064;2022-10-31T00:34:00;14.80;56.20
19090;DHT22;9677;50.656;13.064;2022-10-31T00:36:30;14.80;56.20
19090;DHT22;9677;50.656;13.064;2022-10-31T00:38:59;14.80;56.10
19090;DHT22;9677;50.656;13.064;2022-10-31T00:41:29;14.70;56.00
19090;DHT22;9677;50.656;13.064;2022-10-31T00:43:58;14.70;56.10
19090;DHT22;9677;50.656;13.064;2022-10-31T00:46:26;14.70;56.10
19090;DHT22;9677;50.656;13.064;2022-10-31T00:48:55;14.70;56.10
19090;DHT22;9677;50.656;13.064;2022-10-31T00:51:24;14.60;56.20
19090;DHT22;9677;50.656;13.064;2022-10-31T00:53:52;14.60;56.20
19090;DHT22;9677;50.656;13.064;2022-10-31T00:56:21;14.60;56.20
19090;DHT22;9677;50.656;13.064;2022-10-31T00:58:51;14.60;56.30
19090;DHT22;9677;50.656;13.064;2022-10-31T01:01:20;14.60;56.30
19090;DHT22;9677;50.656;13.064;2022-10-31T01:03:49;14.60;56.30
19090;DHT22;9677;50.656;13.064;2022-10-31T01:06:17;14.60;56.30
19090;DHT22;9677;50.656;13.064;2022-10-31T01:08:47;14.60;56.30
19090;DHT22;9677;50.656;13.064;2022-10-31T01:11:18;14.50;56.30
19090;DHT22;9677;50.656;13.064;2022-10-31T01:13:52;14.50;56.30
19090;DHT22;9677;50.656;13.064;2022-10-31T01:16:23;14.50;56.30
19090;DHT22;9677;50.656;13.064;2022-10-31T01:18:53;14.50;56.40
19090;DHT22;9677;50.656;13.064;2022-10-31T01:21:23;14.50;56.30
19090;DHT22;9677;50.656;13.064;2022-10-31T01:23:53;14.40;56.30
19090;DHT22;9677;50.656;13.064;2022-10-31T01:26:24;14.40;56.30
19090;DHT22;9677;50.656;13.064;2022-10-31T01:28:57;14.40;56.40
19090;DHT22;9677;50.656;13.064;2022-10-31T01:31:30;14.40;56.40
19090;DHT22;9677;50.656;13.064;2022-10-31T01:33:59;14.30;56.40
19090;DHT22;9677;50.656;13.064;2022-10-31T01:36:30;14.30;56.40
19090;DHT22;9677;50.656;13.064;2022-10-31T01:39:01;14.40;56.50
19090;DHT22;9677;50.656;13.064;2022-10-31T01:41:33;14.30;56.50
19090;DHT22;9677;50.656;13.064;2022-10-31T01:47:41;14.30;56.60
19090;DHT22;9677;50.656;13.064;2022-10-31T01:50:27;14.30;56.60
19090;DHT22;9677;50.656;13.064;2022-10-31T01:52:59;14.30;56.60
19090;DHT22;9677;50.656;13.064;2022-10-31T01:55:31;14.20;56.50
19090;DHT22;9677;50.656;13.064;2022-10-31T01:58:05;14.20;56.40
19090;DHT22;9677;50.656;13.064;2022-10-31T02:00:37;14.20;56.50
19090;DHT22;9677;50.656;13.064;2022-10-31T02:03:08;14.20;56.50
19090;DHT22;9677;50.656;13.064;2022-10-31T02:05:38;14.20;56.50
19090;DHT22;9677;50.656;13.064;2022-10-31T02:08:10;14.20;56.50
19090;DHT22;9677;50.656;13.064;2022-10-31T02:10:43;14.10;56.50
19090;DHT22;9677;50.656;13.064;2022-10-31T02:13:13;14.10;56.50
19090;DHT22;9677;50.656;13.064;2022-10-31T02:15:51;14.10;56.60
19090;DHT22;9677;50.656;13.064;2022-10-31T02:18:24;14.10;56.60
19090;DHT22;9677;50.656;13.064;2022-10-31T02:21:01;14.10;56.50
19090;DHT22;9677;50.656;13.064;2022-10-31T02:24:00;14.00;56.50
19090;DHT22;9677;50.656;13.064;2022-10-31T02:26:57;14.00;56.50
19090;DHT22;9677;50.656;13.064;2022-10-31T02:29:52;14.00;56.50
19090;DHT22;9677;50.656;13.064;2022-10-31T02:32:29;14.00;56.50
19090;DHT22;9677;50.656;13.064;2022-10-31T02:35:11;14.00;56.50
19090;DHT22;9677;50.656;13.064;2022-10-31T02:37:47;13.90;56.60
19090;DHT22;9677;50.656;13.064;2022-10-31T02:40:22;13.90;56.50
19090;DHT22;9677;50.656;13.064;2022-10-31T02:43:20;13.90;56.60
19090;DHT22;9677;50.656;13.064;2022-10-31T02:45:56;13.90;56.60
19090;DHT22;9677;50.656;13.064;2022-10-31T02:48:31;13.80;56.60
19090;DHT22;9677;50.656;13.064;2022-10-31T02:51:03;13.80;56.60
19090;DHT22;9677;50.656;13.064;2022-10-31T02:53:36;13.80;56.60
19090;DHT22;9677;50.656;13.064;2022-10-31T02:56:12;13.80;56.70
19090;DHT22;9677;50.656;13.064;2022-10-31T02:58:49;13.80;56.70
19090;DHT22;9677;50.656;13.064;2022-10-31T03:01:45;13.80;56.80
19090;DHT22;9677;50.656;13.064;2022-10-31T03:07:42;13.80;56.90
19090;DHT22;9677;50.656;13.064;2022-10-31T03:10:25;13.70;56.70
19090;DHT22;9677;50.656;13.064;2022-10-31T03:13:05;13.70;56.80
19090;DHT22;9677;50.656;13.064;2022-10-31T03:15:40;13.70;56.80
19090;DHT22;9677;50.656;13.064;2022-10-31T03:18:15;13.70;56.80
19090;DHT22;9677;50.656;13.064;2022-10-31T03:20:52;13.60;56.70
19090;DHT22;9677;50.656;13.064;2022-10-31T03:23:25;13.60;56.70
19090;DHT22;9677;50.656;13.064;2022-10-31T03:25:54;13.60;56.60
19090;DHT22;9677;50.656;13.064;2022-10-31T03:28:29;13.60;56.50
19090;DHT22;9677;50.656;13.064;2022-10-31T03:31:07;13.60;56.60
19090;DHT22;9677;50.656;13.064;2022-10-31T03:33:40;13.50;56.60
19090;DHT22;9677;50.656;13.064;2022-10-31T03:36:14;13.50;56.70
19090;DHT22;9677;50.656;13.064;2022-10-31T03:38:45;13.50;56.70
19090;DHT22;9677;50.656;13.064;2022-10-31T03:41:19;13.40;56.60
19090;DHT22;9677;50.656;13.064;2022-10-31T03:43:56;13.40;56.60
19090;DHT22;9677;50.656;13.064;2022-10-31T03:46:27;13.40;56.70
19090;DHT22;9677;50.656;13.064;2022-10-31T03:48:57;13.30;56.70
19090;DHT22;9677;50.656;13.064;2022-10-31T03:51:34;13.30;56.80
19090;DHT22;9677;50.656;13.064;2022-10-31T03:54:12;13.30;56.80
19090;DHT22;9677;50.656;13.064;2022-10-31T03:56:49;13.30;56.80
19090;DHT22;9677;50.656;13.064;2022-10-31T03:59:25;13.20;56.80
19090;DHT22;9677;50.656;13.064;2022-10-31T04:01:59;13.20;56.80
19090;DHT22;9677;50.656;13.064;2022-10-31T04:04:31;13.20;56.80
19090;DHT22;9677;50.656;13.064;2022-10-31T04:07:03;13.20;56.80
19090;DHT22;9677;50.656;13.064;2022-10-31T04:09:36;13.10;56.80
19090;DHT22;9677;50.656;13.064;2022-10-31T04:12:09;13.10;56.90
19090;DHT22;9677;50.656;13.064;2022-10-31T04:15:10;13.10;56.90
19090;DHT22;9677;50.656;13.064;2022-10-31T04:17:42;13.10;57.00
19090;DHT22;9677;50.656;13.064;2022-10-31T04:20:15;13.10;57.00
19090;DHT22;9677;50.656;13.064;2022-10-31T04:22:45;13.10;57.00
19090;DHT22;9677;50.656;13.064;2022-10-31T04:25:14;13.00;57.00
19090;DHT22;9677;50.656;13.064;2022-10-31T04:27:42;13.00;57.00
19090;DHT22;9677;50.656;13.064;2022-10-31T04:30:12;13.00;57.10
19090;DHT22;9677;50.656;13.064;2022-10-31T04:32:40;13.00;57.10
19090;DHT22;9677;50.656;13.064;2022-10-31T04:35:09;13.00;57.10
19090;DHT22;9677;50.656;13.064;2022-10-31T04:37:37;13.00;57.10
19090;DHT22;9677;50.656;13.064;2022-10-31T04:40:09;13.00;57.10
19090;DHT22;9677;50.656;13.064;2022-10-31T04:43:01;13.00;57.20
19090;DHT22;9677;50.656;13.064;2022-10-31T04:45:31;13.00;57.20
19090;DHT22;9677;50.656;13.064;2022-10-31T04:48:00;12.90;57.10
19090;DHT22;9677;50.656;13.064;2022-10-31T04:50:32;12.90;57.20
19090;DHT22;9677;50.656;13.064;2022-10-31T04:53:01;12.90;57.20
19090;DHT22;9677;50.656;13.064;2022-10-31T04:55:38;12.90;57.20
19090;DHT22;9677;50.656;13.064;2022-10-31T04:58:19;12.90;57.10
19090;DHT22;9677;50.656;13.064;2022-10-31T05:00:51;12.90;57.10
19090;DHT22;9677;50.656;13.064;2022-10-31T05:03:21;12.90;57.10
19090;DHT22;9677;50.656;13.064;2022-10-31T05:05:50;12.90;57.10
19090;DHT22;9677;50.656;13.064;2022-10-31T05:08:19;12.90;57.10
19090;DHT22;9677;50.656;13.064;2022-10-31T05:10:51;12.90;57.10
19090;DHT22;9677;50.656;13.064;2022-10-31T05:13:21;12.90;57.10
19090;DHT22;9677;50.656;13.064;2022-10-31T05:16:15;12.80;57.00
19090;DHT22;9677;50.656;13.064;2022-10-31T05:19:02;12.80;57.00
19090;DHT22;9677;50.656;13.064;2022-10-31T05:21:51;12.80;57.10
19090;DHT22;9677;50.656;13.064;2022-10-31T05:24:20;12.80;57.10
19090;DHT22;9677;50.656;13.064;2022-10-31T05:26:50;12.80;57.10
19090;DHT22;9677;50.656;13.064;2022-10-31T05:29:18;12.70;57.10
19090;DHT22;9677;50.656;13.064;2022-10-31T05:31:47;12.70;57.10
19090;DHT22;9677;50.656;13.064;2022-10-31T05:34:51;12.70;57.20
19090;DHT22;9677;50.656;13.064;2022-10-31T05:37:46;12.70;57.20
19090;DHT22;9677;50.656;13.064;2022-10-31T05:40:16;12.70;57.20
19090;DHT22;9677;50.656;13.064;2022-10-31T05:42:51;12.70;57.20
19090;DHT22;9677;50.656;13.064;2022-10-31T05:45:22;12.70;57.20
19090;DHT22;9677;50.656;13.064;2022-10-31T05:47:57;12.70;57.20
19090;DHT22;9677;50.656;13.064;2022-10-31T05:50:47;12.70;57.20
19090;DHT22;9677;50.656;13.064;2022-10-31T05:53:16;12.60;57.20
19090;DHT22;9677;50.656;13.064;2022-10-31T05:55:45;12.60;57.20
19090;DHT22;9677;50.656;13.064;2022-10-31T05:58:20;12.60;57.20
19090;DHT22;9677;50.656;13.064;2022-10-31T06:01:02;12.60;57.30
19090;DHT22;9677;50.656;13.064;2022-10-31T06:03:32;12.60;57.30
19090;DHT22;9677;50.656;13.064;2022-10-31T06:06:03;12.60;57.30
19090;DHT22;9677;50.656;13.064;2022-10-31T06:08:37;12.60;57.30
19090;DHT22;9677;50.656;13.064;2022-10-31T06:11:11;12.60;57.40
19090;DHT22;9677;50.656;13.064;2022-10-31T06:14:05;12.60;57.40
19090;DHT22;9677;50.656;13.064;2022-10-31T06:16:54;12.60;57.40
19090;DHT22;9677;50.656;13.064;2022-10-31T06:19:46;12.60;57.40
19090;DHT22;9677;50.656;13.064;2022-10-31T06:22:20;12.60;57.40
19090;DHT22;9677;50.656;13.064;2022-10-31T06:24:48;12.60;57.40
19090;DHT22;9677;50.656;13.064;2022-10-31T06:27:29;12.60;57.50
19090;DHT22;9677;50.656;13.064;2022-10-31T06:30:05;12.50;57.40
19090;DHT22;9677;50.656;13.064;2022-10-31T06:32:36;12.50;57.50
19090;DHT22;9677;50.656;13.064;2022-10-31T06:35:05;12.50;57.40
19090;DHT22;9677;50.656;13.064;2022-10-31T06:37:35;12.50;57.50
19090;DHT22;9677;50.656;13.064;2022-10-31T06:40:16;12.50;57.50
19090;DHT22;9677;50.656;13.064;2022-10-31T06:43:05;12.50;57.50
19090;DHT22;9677;50.656;13.064;2022-10-31T06:45:35;12.50;57.50
19090;DHT22;9677;50.656;13.064;2022-10-31T06:48:30;12.50;57.60
19090;DHT22;9677;50.656;13.064;2022-10-31T06:51:15;12.50;57.60
19090;DHT22;9677;50.656;13.064;2022-10-31T06:53:44;12.50;57.60
19090;DHT22;9677;50.656;13.064;2022-10-31T06:56:15;12.50;57.60
19090;DHT22;9677;50.656;13.064;2022-10-31T06:58:48;12.50;57.60
19090;DHT22;9677;50.656;13.064;2022-10-31T07:01:25;12.50;57.60
19090;DHT22;9677;50.656;13.064;2022-10-31T07:03:54;12.50;57.70
19090;DHT22;9677;50.656;13.064;2022-10-31T07:06:23;12.50;57.60
19090;DHT22;9677;50.656;13.064;2022-10-31T07:08:53;12.50;57.60
19090;DHT22;9677;50.656;13.064;2022-10-31T07:11:22;12.50;57.70
19090;DHT22;9677;50.656;13.064;2022-10-31T07:13:51;12.50;57.70
19090;DHT22;9677;50.656;13.064;2022-10-31T07:16:19;12.50;57.70
19090;DHT22;9677;50.656;13.064;2022-10-31T07:18:49;12.50;57.70
19090;DHT22;9677;50.656;13.064;2022-10-31T07:21:18;12.50;57.70
19090;DHT22;9677;50.656;13.064;2022-10-31T07:23:48;12.60;57.80
19090;DHT22;9677;50.656;13.064;2022-10-31T07:26:35;12.50;57.80
19090;DHT22;9677;50.656;13.064;2022-10-31T07:29:04;12.50;57.70
19090;DHT22;9677;50.656;13.064;2022-10-31T07:31:32;12.50;57.80
19090;DHT22;9677;50.656;13.064;2022-10-31T07:34:10;12.50;57.80
19090;DHT22;9677;50.656;13.064;2022-10-31T07:36:57;12.50;57.90
19090;DHT22;9677;50.656;13.064;2022-10-31T07:39:26;12.50;58.00
19090;DHT22;9677;50.656;13.064;2022-10-31T07:41:57;12.50;58.00
19090;DHT22;9677;50.656;13.064;2022-10-31T07:44:26;12.50;58.10
19090;DHT22;9677;50.656;13.064;2022-10-31T07:47:13;12.50;58.10
19090;DHT22;9677;50.656;13.064;2022-10-31T07:50:04;12.50;58.20
19090;DHT22;9677;50.656;13.064;2022-10-31T07:53:00;12.50;58.20
19090;DHT22;9677;50.656;13.064;2022-10-31T07:55:44;12.50;58.30
19090;DHT22;9677;50.656;13.064;2022-10-31T07:58:14;12.60;58.30
19090;DHT22;9677;50.656;13.064;2022-10-31T08:00:45;12.60;58.30
19090;DHT22;9677;50.656;13.064;2022-10-31T08:03:23;12.60;58.40
19090;DHT22;9677;50.656;13.064;2022-10-31T08:05:53;12.60;58.40
19090;DHT22;9677;50.656;13.064;2022-10-31T08:09:01;12.60;58.40
19090;DHT22;9677;50.656;13.064;2022-10-31T08:11:31;12.60;58.40
19090;DHT22;9677;50.656;13.064;2022-10-31T08:14:01;12.70;59.10
19090;DHT22;9677;50.656;13.064;2022-10-31T08:16:29;12.70;58.60
19090;DHT22;9677;50.656;13.064;2022-10-31T08:19:01;12.70;58.70
19090;DHT22;9677;50.656;13.064;2022-10-31T08:21:37;12.70;58.70
19090;DHT22;9677;50.656;13.064;2022-10-31T08:24:07;12.80;58.90
19090;DHT22;9677;50.656;13.064;2022-10-31T08:26:36;12.80;58.90
19090;DHT22;9677;50.656;13.064;2022-10-31T08:29:08;12.80;59.00
19090;DHT22;9677;50.656;13.064;2022-10-31T08:31:38;12.90;59.00
19090;DHT22;9677;50.656;13.064;2022-10-31T08:34:41;13.00;59.10
19090;DHT22;9677;50.656;13.064;2022-10-31T08:37:29;13.00;59.20
19090;DHT22;9677;50.656;13.064;2022-10-31T08:39:58;13.00;59.20
19090;DHT22;9677;50.656;13.064;2022-10-31T08:42:26;13.10;59.30
19090;DHT22;9677;50.656;13.064;2022-10-31T08:44:55;13.20;59.40
19090;DHT22;9677;50.656;13.064;2022-10-31T08:47:24;13.20;59.40
19090;DHT22;9677;50.656;13.064;2022-10-31T08:49:53;13.30;59.60
19090;DHT22;9677;50.656;13.064;2022-10-31T08:52:23;13.30;59.60
19090;DHT22;9677;50.656;13.064;2022-10-31T08:55:14;13.40;59.70
19090;DHT22;9677;50.656;13.064;2022-10-31T08:58:05;13.50;59.80
19090;DHT22;9677;50.656;13.064;2022-10-31T09:00:40;13.50;59.80
19090;DHT22;9677;50.656;13.064;2022-10-31T09:03:16;13.60;59.80
19090;DHT22;9677;50.656;13.064;2022-10-31T09:05:46;13.70;59.90
19090;DHT22;9677;50.656;13.064;2022-10-31T09:08:15;13.80;60.00
19090;DHT22;9677;50.656;13.064;2022-10-31T09:10:48;13.90;60.00
19090;DHT22;9677;50.656;13.064;2022-10-31T09:13:25;14.00;60.10
19090;DHT22;9677;50.656;13.064;2022-10-31T09:16:26;14.00;60.00
19090;DHT22;9677;50.656;13.064;2022-10-31T09:18:55;14.20;60.00
19090;DHT22;9677;50.656;13.064;2022-10-31T09:21:24;14.20;60.00
19090;DHT22;9677;50.656;13.064;2022-10-31T09:23:53;14.30;60.10
19090;DHT22;9677;50.656;13.064;2022-10-31T09:26:23;14.40;60.10
19090;DHT22;9677;50.656;13.064;2022-10-31T09:29:17;14.50;60.20
19090;DHT22;9677;50.656;13.064;2022-10-31T09:31:53;14.60;60.10
19090;DHT22;9677;50.656;13.064;2022-10-31T09:34:27;14.70;60.20
19090;DHT22;9677;50.656;13.064;2022-10-31T09:37:02;14.80;60.20
19090;DHT22;9677;50.656;13.064;2022-10-31T09:39:33;14.90;60.20
19090;DHT22;9677;50.656;13.064;2022-10-31T09:42:28;15.00;60.20
19090;DHT22;9677;50.656;13.064;2022-10-31T09:45:16;15.10;60.60
19090;DHT22;9677;50.656;13.064;2022-10-31T09:48:00;15.20;60.40
19090;DHT22;9677;50.656;13.064;2022-10-31T09:50:40;15.40;60.40
19090;DHT22;9677;50.656;13.064;2022-10-31T09:53:38;15.50;60.30
19090;DHT22;9677;50.656;13.064;2022-10-31T09:56:12;15.60;60.10
19090;DHT22;9677;50.656;13.064;2022-10-31T09:58:47;15.70;60.00
19090;DHT22;9677;50.656;13.064;2022-10-31T10:01:32;15.80;60.00
19090;DHT22;9677;50.656;13.064;2022-10-31T10:04:20;15.90;60.00
19090;DHT22;9677;50.656;13.064;2022-10-31T10:07:11;16.10;60.00
19090;DHT22;9677;50.656;13.064;2022-10-31T10:09:44;16.20;59.90
19090;DHT22;9677;50.656;13.064;2022-10-31T10:12:41;16.30;59.70
19090;DHT22;9677;50.656;13.064;2022-10-31T10:15:35;16.40;59.70
19090;DHT22;9677;50.656;13.064;2022-10-31T10:18:17;16.60;59.70
19090;DHT22;9677;50.656;13.064;2022-10-31T10:20:59;16.70;59.60
19090;DHT22;9677;50.656;13.064;2022-10-31T10:23:42;16.80;59.50
19090;DHT22;9677;50.656;13.064;2022-10-31T10:26:20;17.00;59.50
19090;DHT22;9677;50.656;13.064;2022-10-31T10:28:54;17.10;59.40
19090;DHT22;9677;50.656;13.064;2022-10-31T10:31:30;17.20;59.40
19090;DHT22;9677;50.656;13.064;2022-10-31T10:34:12;17.30;59.30
19090;DHT22;9677;50.656;13.064;2022-10-31T10:36:49;17.50;59.30
19090;DHT22;9677;50.656;13.064;2022-10-31T10:39:22;17.70;59.30
19090;DHT22;9677;50.656;13.064;2022-10-31T10:41:55;17.80;59.20
19090;DHT22;9677;50.656;13.064;2022-10-31T10:44:45;17.90;59.00
19090;DHT22;9677;50.656;13.064;2022-10-31T10:47:38;18.10;59.10
19090;DHT22;9677;50.656;13.064;2022-10-31T10:50:14;18.30;58.90
19090;DHT22;9677;50.656;13.064;2022-10-31T10:52:56;18.40;58.90
19090;DHT22;9677;50.656;13.064;2022-10-31T10:55:36;18.60;58.90
19090;DHT22;9677;50.656;13.064;2022-10-31T10:58:10;18.70;58.80
19090;DHT22;9677;50.656;13.064;2022-10-31T11:00:40;18.90;58.80
19090;DHT22;9677;50.656;13.064;2022-10-31T11:03:16;19.10;58.70
19090;DHT22;9677;50.656;13.064;2022-10-31T11:05:49;19.20;58.60
19090;DHT22;9677;50.656;13.064;2022-10-31T11:08:25;19.40;58.50
19090;DHT22;9677;50.656;13.064;2022-10-31T11:10:59;19.60;58.50
19090;DHT22;9677;50.656;13.064;2022-10-31T11:13:30;19.80;58.30
19090;DHT22;9677;50.656;13.064;2022-10-31T11:16:00;20.00;58.20
19090;DHT22;9677;50.656;13.064;2022-10-31T11:18:34;20.20;58.10
19090;DHT22;9677;50.656;13.064;2022-10-31T11:21:05;20.30;57.80
19090;DHT22;9677;50.656;13.064;2022-10-31T11:23:45;20.50;57.70
19090;DHT22;9677;50.656;13.064;2022-10-31T11:26:19;20.60;57.40
19090;DHT22;9677;50.656;13.064;2022-10-31T11:28:56;20.80;57.00
19090;DHT22;9677;50.656;13.064;2022-10-31T11:31:27;21.00;56.80
19090;DHT22;9677;50.656;13.064;2022-10-31T11:33:58;21.10;56.80
19090;DHT22;9677;50.656;13.064;2022-10-31T11:36:31;21.30;56.50
19090;DHT22;9677;50.656;13.064;2022-10-31T11:39:03;21.50;56.40
19090;DHT22;9677;50.656;13.064;2022-10-31T11:41:35;21.60;56.10
19090;DHT22;9677;50.656;13.064;2022-10-31T11:44:14;21.70;55.90
19090;DHT22;9677;50.656;13.064;2022-10-31T11:46:46;21.90;55.60
19090;DHT22;9677;50.656;13.064;2022-10-31T11:49:19;22.00;55.60
19090;DHT22;9677;50.656;13.064;2022-10-31T11:51:53;22.10;55.30
19090;DHT22;9677;50.656;13.064;2022-10-31T11:54:25;22.20;55.20
19090;DHT22;9677;50.656;13.064;2022-10-31T11:56:57;22.40;55.10
19090;DHT22;9677;50.656;13.064;2022-10-31T11:59:27;22.50;54.90
19090;DHT22;9677;50.656;13.064;2022-10-31T12:02:00;22.60;54.70
19090;DHT22;9677;50.656;13.064;2022-10-31T12:04:36;22.70;54.70
19090;DHT22;9677;50.656;13.064;2022-10-31T12:07:07;22.80;54.30
19090;DHT22;9677;50.656;13.064;2022-10-31T12:09:37;22.80;54.30
19090;DHT22;9677;50.656;13.064;2022-10-31T12:12:32;22.90;54.20
19090;DHT22;9677;50.656;13.064;2022-10-31T12:15:31;23.00;53.70
19090;DHT22;9677;50.656;13.064;2022-10-31T12:18:24;23.00;53.50
19090;DHT22;9677;50.656;13.064;2022-10-31T12:21:12;23.10;53.40
19090;DHT22;9677;50.656;13.064;2022-10-31T12:23:57;23.10;53.40
19090;DHT22;9677;50.656;13.064;2022-10-31T12:26:36;23.20;53.40
19090;DHT22;9677;50.656;13.064;2022-10-31T12:29:42;23.20;53.40
19090;DHT22;9677;50.656;13.064;2022-10-31T12:32:30;23.20;53.20
19090;DHT22;9677;50.656;13.064;2022-10-31T12:35:25;23.30;53.40
19090;DHT22;9677;50.656;13.064;2022-10-31T12:41:26;23.40;53.20
19090;DHT22;9677;50.656;13.064;2022-10-31T12:44:06;23.40;53.00
19090;DHT22;9677;50.656;13.064;2022-10-31T12:46:56;23.40;53.30
19090;DHT22;9677;50.656;13.064;2022-10-31T12:49:42;23.50;53.00
19090;DHT22;9677;50.656;13.064;2022-10-31T12:52:31;23.50;53.10
19090;DHT22;9677;50.656;13.064;2022-10-31T12:55:23;23.50;52.90
19090;DHT22;9677;50.656;13.064;2022-10-31T12:58:05;23.50;52.80
19090;DHT22;9677;50.656;13.064;2022-10-31T13:00:39;23.60;53.10
19090;DHT22;9677;50.656;13.064;2022-10-31T13:03:20;23.50;53.00
19090;DHT22;9677;50.656;13.064;2022-10-31T13:05:56;23.60;52.80
19090;DHT22;9677;50.656;13.064;2022-10-31T13:08:33;23.60;53.00
19090;DHT22;9677;50.656;13.064;2022-10-31T13:11:10;23.60;52.80
19090;DHT22;9677;50.656;13.064;2022-10-31T13:13:47;23.60;52.80
19090;DHT22;9677;50.656;13.064;2022-10-31T13:16:21;23.70;52.90
19090;DHT22;9677;50.656;13.064;2022-10-31T13:18:57;23.70;52.80
19090;DHT22;9677;50.656;13.064;2022-10-31T13:21:33;23.70;52.80
19090;DHT22;9677;50.656;13.064;2022-10-31T13:24:11;23.70;52.80
19090;DHT22;9677;50.656;13.064;2022-10-31T13:26:46;23.70;52.70
19090;DHT22;9677;50.656;13.064;2022-10-31T13:29:20;23.70;52.60
19090;DHT22;9677;50.656;13.064;2022-10-31T13:31:57;23.70;52.60
19090;DHT22;9677;50.656;13.064;2022-10-31T13:34:30;23.70;52.70
19090;DHT22;9677;50.656;13.064;2022-10-31T13:37:05;23.70;52.60
19090;DHT22;9677;50.656;13.064;2022-10-31T13:39:52;23.70;52.50
19090;DHT22;9677;50.656;13.064;2022-10-31T13:42:45;23.70;52.40
19090;DHT22;9677;50.656;13.064;2022-10-31T13:45:21;23.70;52.30
19090;DHT22;9677;50.656;13.064;2022-10-31T13:47:59;23.70;52.50
19090;DHT22;9677;50.656;13.064;2022-10-31T13:50:30;23.70;52.90
19090;DHT22;9677;50.656;13.064;2022-10-31T13:53:13;23.70;52.50
19090;DHT22;9677;50.656;13.064;2022-10-31T13:55:49;23.70;52.20
19090;DHT22;9677;50.656;13.064;2022-10-31T13:58:25;23.70;52.40
19090;DHT22;9677;50.656;13.064;2022-10-31T14:01:15;23.70;52.30
19090;DHT22;9677;50.656;13.064;2022-10-31T14:03:47;23.70;52.20
19090;DHT22;9677;50.656;13.064;2022-10-31T14:06:43;23.70;52.50
19090;DHT22;9677;50.656;13.064;2022-10-31T14:09:23;23.70;52.40
19090;DHT22;9677;50.656;13.064;2022-10-31T14:11:59;23.60;52.20
19090;DHT22;9677;50.656;13.064;2022-10-31T14:14:42;23.60;52.30
19090;DHT22;9677;50.656;13.064;2022-10-31T14:17:22;23.60;52.00
19090;DHT22;9677;50.656;13.064;2022-10-31T14:23:30;23.50;51.90
19090;DHT22;9677;50.656;13.064;2022-10-31T14:26:31;23.50;51.90
19090;DHT22;9677;50.656;13.064;2022-10-31T14:29:25;23.40;51.80
19090;DHT22;9677;50.656;13.064;2022-10-31T14:31:59;23.40;52.00
19090;DHT22;9677;50.656;13.064;2022-10-31T14:34:36;23.30;51.80
19090;DHT22;9677;50.656;13.064;2022-10-31T14:37:35;23.20;51.80
19090;DHT22;9677;50.656;13.064;2022-10-31T14:40:30;23.20;51.50
19090;DHT22;9677;50.656;13.064;2022-10-31T14:43:44;23.10;51.40
19090;DHT22;9677;50.656;13.064;2022-10-31T14:46:28;23.00;51.30
19090;DHT22;9677;50.656;13.064;2022-10-31T14:49:21;22.90;51.40
19090;DHT22;9677;50.656;13.064;2022-10-31T14:52:05;22.80;51.30
19090;DHT22;9677;50.656;13.064;2022-10-31T14:54:39;22.80;51.50
19090;DHT22;9677;50.656;13.064;2022-10-31T14:57:16;22.70;51.50
19090;DHT22;9677;50.656;13.064;2022-10-31T14:59:50;22.60;51.40
19090;DHT22;9677;50.656;13.064;2022-10-31T15:02:31;22.50;51.60
19090;DHT22;9677;50.656;13.064;2022-10-31T15:05:08;22.40;51.60
19090;DHT22;9677;50.656;13.064;2022-10-31T15:07:49;22.40;51.60
19090;DHT22;9677;50.656;13.064;2022-10-31T15:10:21;22.30;51.60
19090;DHT22;9677;50.656;13.064;2022-10-31T15:12:52;22.20;51.80
19090;DHT22;9677;50.656;13.064;2022-10-31T15:15:22;22.20;51.90
19090;DHT22;9677;50.656;13.064;2022-10-31T15:17:55;22.10;51.90
19090;DHT22;9677;50.656;13.064;2022-10-31T15:20:30;22.00;51.90
19090;DHT22;9677;50.656;13.064;2022-10-31T15:23:02;21.90;52.00
19090;DHT22;9677;50.656;13.064;2022-10-31T15:25:34;21.90;52.10
19090;DHT22;9677;50.656;13.064;2022-10-31T15:28:13;21.70;52.10
19090;DHT22;9677;50.656;13.064;2022-10-31T15:30:50;21.70;52.10
19090;DHT22;9677;50.656;13.064;2022-10-31T15:33:22;21.60;52.20
19090;DHT22;9677;50.656;13.064;2022-10-31T15:35:57;21.60;52.20
19090;DHT22;9677;50.656;13.064;2022-10-31T15:38:27;21.40;52.10
19090;DHT22;9677;50.656;13.064;2022-10-31T15:41:01;21.40;52.20
19090;DHT22;9677;50.656;13.064;2022-10-31T15:43:34;21.30;52.30
19090;DHT22;9677;50.656;13.064;2022-10-31T15:46:07;21.20;52.40
19090;DHT22;9677;50.656;13.064;2022-10-31T15:48:37;21.10;52.40
19090;DHT22;9677;50.656;13.064;2022-10-31T15:51:09;21.00;52.40
19090;DHT22;9677;50.656;13.064;2022-10-31T15:53:43;21.00;52.40
19090;DHT22;9677;50.656;13.064;2022-10-31T15:56:20;20.90;52.50
19090;DHT22;9677;50.656;13.064;2022-10-31T15:58:52;20.80;52.50
19090;DHT22;9677;50.656;13.064;2022-10-31T16:01:22;20.70;52.60
19090;DHT22;9677;50.656;13.064;2022-10-31T16:04:01;20.60;52.60
19090;DHT22;9677;50.656;13.064;2022-10-31T16:06:34;20.60;52.70
19090;DHT22;9677;50.656;13.064;2022-10-31T16:09:03;20.50;52.70
19090;DHT22;9677;50.656;13.064;2022-10-31T16:11:47;20.40;52.70
19090;DHT22;9677;50.656;13.064;2022-10-31T16:14:18;20.30;52.70
19090;DHT22;9677;50.656;13.064;2022-10-31T16:16:53;20.30;52.80
19090;DHT22;9677;50.656;13.064;2022-10-31T16:19:25;20.20;52.80
19090;DHT22;9677;50.656;13.064;2022-10-31T16:22:04;20.10;52.80
19090;DHT22;9677;50.656;13.064;2022-10-31T16:24:59;20.00;52.80
19090;DHT22;9677;50.656;13.064;2022-10-31T16:27:31;19.90;52.90
19090;DHT22;9677;50.656;13.064;2022-10-31T16:30:02;19.90;53.00
19090;DHT22;9677;50.656;13.064;2022-10-31T16:32:34;19.80;53.00
19090;DHT22;9677;50.656;13.064;2022-10-31T16:35:25;19.70;53.10
19090;DHT22;9677;50.656;13.064;2022-10-31T16:37:55;19.60;53.10
19090;DHT22;9677;50.656;13.064;2022-10-31T16:40:25;19.60;53.20
19090;DHT22;9677;50.656;13.064;2022-10-31T16:42:55;19.50;53.20